createdAt,value
2022-10-18T03:23:56.143Z,5.43
2022-10-18T03:27:06.040Z,2.63
2022-10-18T03:30:16.004Z,3.00
2022-10-18T03:33:25.924Z,3.40
2022-10-18T03:36:40.676Z,4.00
2022-10-18T03:39:50.597Z,3.80
2022-10-18T03:43:00.481Z,3.90
2022-10-18T03:46:10.441Z,3.47
2022-10-18T03:49:20.384Z,3.93
2022-10-18T03:56:30.591Z,3.43
2022-10-18T03:59:40.524Z,3.63
2022-10-18T04:02:53.338Z,4.00
2022-10-18T04:06:05.833Z,4.30
2022-10-18T04:09:19.502Z,4.20
2022-10-18T04:12:29.758Z,3.97
2022-10-18T04:15:42.562Z,4.27
2022-10-18T04:18:54.566Z,4.47
2022-10-18T04:22:04.487Z,3.90
2022-10-18T04:29:17.186Z,3.80
2022-10-18T04:32:29.418Z,3.63
2022-10-18T04:35:39.320Z,3.27
2022-10-18T04:38:49.199Z,3.77
2022-10-18T04:42:00.417Z,3.47
2022-10-18T04:45:13.398Z,4.13
2022-10-18T04:48:23.526Z,4.80
2022-10-18T04:51:40.870Z,4.27
2022-10-18T04:54:50.775Z,5.93
2022-10-18T05:38:58.630Z,3.60
2022-10-18T05:42:12.075Z,4.00
2022-10-18T05:45:22.041Z,4.17
2022-10-18T05:48:32.298Z,4.07
2022-10-18T05:51:42.260Z,3.73
2022-10-18T05:55:15.083Z,5.57
2022-10-18T05:58:27.893Z,5.87
2022-10-18T06:01:42.259Z,4.57
2022-10-18T06:04:52.169Z,3.77
2022-10-18T06:08:07.937Z,3.70
2022-10-18T06:11:22.400Z,4.33
2022-10-18T06:14:35.183Z,4.37
2022-10-18T06:17:45.089Z,4.00
2022-10-18T08:50:26.977Z,5.13
2022-10-18T08:53:51.579Z,7.97
2022-10-18T08:57:08.103Z,6.27
2022-10-18T09:00:21.436Z,6.37
2022-10-18T09:03:51.204Z,5.70
2022-10-18T09:07:19.289Z,6.07
2022-10-18T09:10:41.088Z,6.47
2022-10-18T09:14:08.036Z,6.27
2022-10-18T09:17:27.754Z,4.57
2022-10-18T09:20:50.887Z,4.90
2022-10-18T09:24:09.236Z,5.33
2022-10-18T09:27:34.901Z,5.73
2022-10-18T09:30:58.661Z,5.80
2022-10-18T09:34:16.389Z,5.20
2022-10-18T09:37:30.391Z,4.60
2022-10-18T09:40:51.339Z,4.90
2022-10-18T09:44:06.799Z,5.17
2022-10-18T09:47:24.814Z,4.70
2022-10-18T09:50:40.113Z,3.90
2022-10-18T09:54:07.147Z,3.13
2022-10-18T09:57:28.569Z,3.60
2022-10-18T10:00:48.746Z,3.33
2022-10-18T10:04:01.092Z,3.30
2022-10-18T10:07:14.872Z,2.60
2022-10-18T10:10:26.723Z,2.60
2022-10-18T10:13:40.226Z,2.97
2022-10-18T10:16:53.759Z,2.53
2022-10-18T10:20:16.762Z,2.07
2022-10-18T10:23:30.946Z,2.30
2022-10-18T10:26:41.383Z,2.20
2022-10-18T10:29:57.778Z,2.20
2022-10-18T10:33:33.792Z,1.93
2022-10-18T10:36:49.027Z,2.00
2022-10-18T10:40:19.860Z,2.30
2022-10-18T10:43:38.779Z,1.80
2022-10-18T10:46:52.563Z,1.90
2022-10-18T10:50:11.852Z,1.83
2022-10-18T10:53:29.313Z,1.77
2022-10-18T10:56:55.529Z,1.50
2022-10-18T11:00:06.154Z,1.50
2022-10-18T11:03:34.990Z,1.90
2022-10-18T11:06:50.252Z,1.67
2022-10-18T11:10:04.722Z,1.70
2022-10-18T11:13:34.039Z,1.30
2022-10-18T11:16:52.616Z,1.33
2022-10-18T11:20:23.292Z,1.40
2022-10-18T11:23:34.776Z,1.40
2022-10-18T11:26:53.752Z,1.10
2022-10-18T11:30:18.111Z,1.80
2022-10-18T11:34:07.148Z,1.00
2022-10-18T11:37:47.917Z,1.00
2022-10-18T11:41:12.545Z,0.70
2022-10-18T11:44:54.919Z,0.60
2022-10-18T11:48:23.441Z,0.60
2022-10-18T11:52:06.879Z,0.80
2022-10-18T11:55:34.941Z,0.60
2022-10-18T11:59:01.129Z,0.70
2022-10-18T12:02:32.386Z,0.73
2022-10-18T12:05:45.744Z,0.70
2022-10-18T12:08:59.625Z,0.80
2022-10-18T12:12:21.161Z,0.60
2022-10-18T12:15:34.920Z,1.00
2022-10-18T12:22:15.796Z,0.60
2022-10-18T12:25:26.378Z,0.60
2022-10-18T12:28:48.825Z,0.60
2022-10-18T12:32:07.301Z,0.70
2022-10-18T12:35:20.464Z,0.50
2022-10-18T12:38:32.765Z,0.60
2022-10-18T12:41:42.800Z,0.50
2022-10-18T12:45:05.044Z,0.70
2022-10-18T12:48:30.579Z,0.77
2022-10-18T12:51:51.787Z,0.50
2022-10-18T12:55:13.908Z,0.57
2022-10-18T12:58:30.839Z,0.50
2022-10-18T13:02:10.626Z,0.40
2022-10-18T13:05:56.306Z,0.53
2022-10-18T13:09:21.427Z,0.40
2022-10-18T13:12:49.952Z,0.40
2022-10-18T13:16:11.695Z,0.50
2022-10-18T13:19:32.031Z,0.50
2022-10-18T13:23:02.600Z,0.70
2022-10-18T13:26:25.172Z,0.73
2022-10-18T13:29:51.618Z,0.70
2022-10-18T13:33:22.191Z,0.60
2022-10-18T13:36:34.302Z,0.53
2022-10-18T13:39:45.865Z,0.80
2022-10-18T13:42:58.606Z,0.53
2022-10-18T13:46:08.612Z,0.50
2022-10-18T13:49:32.657Z,0.70
2022-10-18T13:53:03.192Z,0.97
2022-10-18T13:56:33.464Z,0.60
2022-10-18T14:00:05.204Z,0.50
2022-10-18T14:07:11.388Z,0.50
2022-10-18T14:10:43.437Z,0.70
2022-10-18T14:14:07.585Z,0.60
2022-10-18T14:17:28.230Z,0.80
2022-10-18T14:21:12.231Z,0.70
2022-10-18T14:24:24.429Z,0.60
2022-10-18T14:27:35.239Z,0.57
2022-10-18T14:30:58.033Z,0.73
2022-10-18T14:34:15.620Z,0.90
2022-10-18T14:37:29.091Z,0.90
2022-10-18T14:40:43.243Z,5.27
2022-10-18T14:43:54.983Z,2.00
2022-10-18T14:47:16.148Z,1.90
2022-10-18T14:50:30.733Z,1.37
2022-10-18T14:53:43.809Z,1.03
2022-10-18T14:56:54.193Z,1.57
2022-10-18T15:00:08.742Z,1.50
2022-10-18T15:03:28.358Z,1.50
2022-10-18T15:06:43.698Z,1.70
2022-10-18T15:09:54.640Z,7.70
2022-10-18T15:13:10.636Z,6.97
2022-10-18T15:16:24.491Z,1.93
2022-10-18T15:19:39.981Z,2.10
2022-10-18T15:22:50.081Z,1.20
2022-10-18T15:26:04.052Z,1.27
2022-10-18T15:29:18.678Z,1.60
2022-10-18T15:32:34.298Z,1.30
2022-10-18T15:35:48.786Z,1.63
2022-10-18T15:39:08.925Z,1.70
2022-10-18T15:42:40.242Z,1.67
2022-10-18T15:45:59.973Z,1.70
2022-10-18T15:49:39.897Z,1.57
2022-10-18T15:52:53.659Z,1.50
2022-10-18T15:56:11.060Z,2.50
2022-10-18T15:59:24.735Z,1.60
2022-10-18T16:02:35.279Z,1.80
2022-10-18T16:05:48.100Z,1.57
2022-10-18T16:08:59.580Z,1.60
2022-10-18T16:12:12.339Z,1.67
2022-10-18T16:15:22.296Z,2.50
2022-10-18T16:18:36.597Z,2.03
2022-10-18T16:21:46.514Z,6.70
2022-10-18T16:28:26.630Z,24.97
2022-10-18T16:31:39.211Z,3.87
2022-10-18T16:34:52.103Z,2.50
2022-10-18T16:38:07.531Z,1.90
2022-10-18T16:41:22.133Z,1.80
2022-10-18T16:44:36.969Z,2.30
2022-10-18T16:47:47.287Z,2.20
2022-10-18T16:51:00.648Z,2.80
2022-10-18T16:54:10.546Z,2.67
2022-10-18T16:57:21.786Z,1.87
2022-10-18T17:00:31.979Z,3.03
2022-10-18T17:03:41.933Z,3.63
2022-10-18T17:06:59.626Z,3.00
2022-10-18T17:10:12.702Z,3.30
2022-10-18T17:13:25.783Z,2.47
2022-10-18T17:16:38.846Z,3.90
2022-10-18T17:19:49.117Z,2.63
2022-10-18T17:22:59.019Z,5.27
2022-10-18T17:26:27.663Z,10.03
2022-10-18T17:29:43.299Z,6.23
2022-10-18T17:32:55.372Z,6.00
2022-10-18T17:36:05.775Z,5.13
2022-10-18T17:39:16.211Z,8.30
2022-10-18T17:42:29.303Z,3.83
2022-10-18T17:45:48.043Z,3.00
2022-10-18T17:49:00.094Z,3.57
2022-10-18T17:52:16.542Z,3.67
2022-10-18T17:55:29.756Z,3.50
2022-10-18T17:58:42.064Z,5.90
2022-10-18T18:01:54.073Z,8.13
2022-10-18T18:05:04.816Z,3.37
2022-10-18T18:08:15.096Z,3.60
2022-10-18T18:11:26.366Z,3.90
2022-10-18T18:14:36.672Z,4.63
2022-10-18T18:17:56.698Z,3.10
2022-10-18T18:21:07.324Z,2.70
2022-10-18T18:24:17.783Z,2.60
2022-10-18T18:27:27.704Z,5.07
2022-10-18T18:30:40.906Z,5.80
2022-10-18T18:33:54.811Z,17.33
2022-10-18T18:37:05.001Z,10.93
2022-10-18T18:40:14.912Z,9.70
2022-10-18T18:43:27.581Z,15.93
2022-10-18T18:46:38.760Z,22.20
2022-10-18T18:49:52.912Z,23.47
2022-10-18T18:53:03.028Z,25.90
2022-10-18T18:56:15.395Z,7.37
2022-10-18T18:59:25.584Z,23.17
2022-10-18T19:02:35.486Z,9.17
2022-10-18T19:05:49.194Z,4.90
2022-10-18T19:09:03.026Z,7.43
2022-10-18T19:12:15.301Z,7.50
2022-10-18T19:15:28.112Z,4.07
2022-10-18T19:18:45.198Z,3.20
2022-10-18T19:21:58.392Z,4.00
2022-10-18T19:25:13.763Z,3.60
2022-10-18T19:28:23.857Z,3.37
2022-10-18T19:31:35.051Z,2.87
2022-10-18T19:34:45.130Z,4.23
2022-10-18T19:37:56.348Z,3.67
2022-10-18T19:44:13.657Z,4.13
2022-10-18T19:47:26.442Z,4.33
2022-10-18T19:50:46.303Z,4.40
2022-10-18T19:53:59.139Z,3.10
2022-10-18T19:57:09.458Z,3.93
2022-10-18T20:00:19.884Z,12.23
2022-10-18T20:03:33.947Z,10.30
2022-10-18T20:06:44.411Z,6.03
2022-10-18T20:10:04.348Z,3.87
2022-10-18T20:13:14.484Z,2.83
